Time;durP1;ratioP1;P1;durP2;ratioP2;P2;SDS_P1;SDS_P2;PMS_P1;PMS_P2;Temp;Humidity;BMP_temperature;BMP_pressure;BME280_temperature;BME280_humidity;BME280_pressure;Samples;Min_cycle;Max_cycle;Signal;HPM_P1;HPM_P2
2022/07/10 00:01:48;;;;;;;0.90;0.50;;;13.60;99.90;;;;;;5002077;28;20041;-76
2022/07/10 00:04:18;;;;;;;0.77;0.40;;;13.60;99.90;;;;;;5018258;28;20120;-76
2022/07/10 00:06:46;;;;;;;3.05;0.77;;;13.60;99.90;;;;;;5001923;28;20045;-76
2022/07/10 00:09:15;;;;;;;1.35;0.50;;;13.60;99.90;;;;;;5002451;28;20049;-76
2022/07/10 00:11:42;;;;;;;2.55;0.65;;;13.60;99.90;;;;;;5002119;28;20045;-76
2022/07/10 00:14:08;;;;;;;2.53;0.77;;;13.60;99.90;;;;;;4979048;28;20100;-75
2022/07/10 00:16:34;;;;;;;0.93;0.40;;;13.50;99.90;;;;;;4979028;28;20046;-76
2022/07/10 00:19:00;;;;;;;0.70;0.45;;;13.40;99.90;;;;;;4978981;28;20092;-75
2022/07/10 00:21:26;;;;;;;2.28;0.47;;;13.80;99.90;;;;;;4978959;28;20038;-76
2022/07/10 00:23:52;;;;;;;2.83;0.57;;;13.50;99.90;;;;;;4979161;28;20045;-76
2022/07/10 00:26:17;;;;;;;1.83;0.40;;;13.40;99.90;;;;;;4962827;28;20229;-76
2022/07/10 00:28:43;;;;;;;0.98;0.43;;;13.20;99.90;;;;;;4994984;28;20042;-76
2022/07/10 00:31:10;;;;;;;1.92;0.60;;;13.40;99.90;;;;;;4994934;28;20049;-75
2022/07/10 00:33:37;;;;;;;1.92;0.80;;;13.20;99.90;;;;;;4978966;28;20054;-76
2022/07/10 00:36:06;;;;;;;1.73;0.60;;;13.10;99.90;;;;;;4995172;28;20454;-76
2022/07/10 00:38:32;;;;;;;0.30;0.30;;;13.10;99.90;;;;;;4994814;28;20038;-76
2022/07/10 00:40:58;;;;;;;2.22;0.57;;;13.10;99.90;;;;;;4978487;28;20041;-76
2022/07/10 00:43:24;;;;;;;1.58;0.80;;;13.10;99.90;;;;;;4978792;28;20297;-76
2022/07/10 00:45:50;;;;;;;2.95;0.40;;;13.00;99.90;;;;;;4994458;28;20041;-76
2022/07/10 00:48:16;;;;;;;1.42;0.40;;;13.00;99.90;;;;;;4994995;28;20038;-76
2022/07/10 00:50:45;;;;;;;2.80;0.60;;;13.30;99.90;;;;;;4994665;28;20512;-75
2022/07/10 00:53:13;;;;;;;0.40;0.40;;;13.00;99.90;;;;;;4994620;28;20053;-75
2022/07/10 00:55:39;;;;;;;1.40;0.47;;;12.90;99.90;;;;;;4978632;28;20046;-75
2022/07/10 00:58:09;;;;;;;1.35;0.47;;;13.20;99.90;;;;;;4994574;28;20049;-76
2022/07/10 01:00:37;;;;;;;1.43;0.70;;;12.80;99.90;;;;;;4994367;28;20050;-76
2022/07/10 01:03:03;;;;;;;4.10;0.63;;;12.80;99.90;;;;;;4978331;28;20046;-76
2022/07/10 01:05:29;;;;;;;0.75;0.50;;;12.80;99.90;;;;;;4994393;28;20092;-76
2022/07/10 01:07:55;;;;;;;1.98;0.70;;;12.80;99.90;;;;;;4978099;28;20512;-75
2022/07/10 01:10:21;;;;;;;0.65;0.30;;;12.80;99.90;;;;;;4961881;28;20441;-76
2022/07/10 01:12:47;;;;;;;1.55;0.50;;;12.80;99.90;;;;;;4986470;28;20049;-76
2022/07/10 01:15:12;;;;;;;1.42;0.60;;;12.80;99.90;;;;;;5014040;28;20481;-75
2022/07/10 01:17:38;;;;;;;2.28;0.82;;;12.90;99.90;;;;;;5013942;28;20116;-75
2022/07/10 01:20:09;;;;;;;1.02;0.43;;;12.90;99.90;;;;;;4997341;28;20107;-75
2022/07/10 01:22:37;;;;;;;1.23;0.70;;;12.90;99.90;;;;;;5013673;28;20042;-75
2022/07/10 01:25:03;;;;;;;0.52;0.32;;;12.90;99.90;;;;;;5013849;28;20038;-76
2022/07/10 01:27:29;;;;;;;2.47;0.68;;;12.90;99.90;;;;;;5013786;28;20042;-76
2022/07/10 01:29:55;;;;;;;0.80;0.50;;;12.90;99.90;;;;;;5013456;28;20049;-75
2022/07/10 01:32:20;;;;;;;0.65;0.50;;;12.80;99.90;;;;;;4997478;28;20470;-76
2022/07/10 01:34:47;;;;;;;0.88;0.40;;;12.80;99.90;;;;;;4997222;28;20038;-75
2022/07/10 01:37:13;;;;;;;0.60;0.47;;;12.80;99.90;;;;;;5013492;28;20045;-76
2022/07/10 01:39:39;;;;;;;1.63;0.77;;;12.80;99.90;;;;;;4996944;28;20050;-76
2022/07/10 01:42:05;;;;;;;0.38;0.28;;;13.20;99.90;;;;;;4996822;28;20445;-75
2022/07/10 01:44:31;;;;;;;0.70;0.40;;;12.80;99.90;;;;;;4996919;28;20041;-76
2022/07/10 01:46:56;;;;;;;2.10;0.70;;;12.80;99.90;;;;;;5013110;28;20405;-75
2022/07/10 01:49:22;;;;;;;1.60;0.40;;;12.70;99.90;;;;;;5012991;28;20136;-76
2022/07/10 01:51:48;;;;;;;2.28;0.50;;;12.90;99.90;;;;;;4996764;28;20391;-75
2022/07/10 01:54:13;;;;;;;2.78;0.57;;;12.90;99.90;;;;;;4996798;28;20048;-76
2022/07/10 01:56:39;;;;;;;0.68;0.40;;;12.90;99.90;;;;;;5012086;28;20077;-76
2022/07/10 01:59:05;;;;;;;2.55;0.85;;;12.90;99.90;;;;;;5012907;28;20045;-76
2022/07/10 02:01:31;;;;;;;0.85;0.50;;;13.00;99.90;;;;;;4996583;28;20466;-76
2022/07/10 02:06:42;;;;;;;7.18;0.70;;;13.30;99.90;;;;;;5012847;28;20049;-75
2022/07/10 02:09:07;;;;;;;0.52;0.30;;;13.00;99.90;;;;;;5012574;28;20037;-76
2022/07/10 02:11:33;;;;;;;1.33;0.60;;;13.00;99.90;;;;;;5012851;28;20401;-76
2022/07/10 02:13:59;;;;;;;1.50;0.50;;;13.00;99.90;;;;;;4996079;28;20057;-76
2022/07/10 02:16:24;;;;;;;1.92;0.47;;;13.00;99.90;;;;;;4996254;28;20050;-75
2022/07/10 02:18:50;;;;;;;1.67;0.60;;;13.40;99.90;;;;;;5012564;28;20382;-75
2022/07/10 02:21:16;;;;;;;1.15;0.47;;;13.00;99.90;;;;;;4996055;28;20038;-76
2022/07/10 02:23:42;;;;;;;4.25;1.13;;;12.80;99.90;;;;;;5012497;28;20574;-75
2022/07/10 02:26:07;;;;;;;0.30;0.30;;;12.90;99.90;;;;;;4996050;28;20037;-76
2022/07/10 02:28:33;;;;;;;0.77;0.50;;;12.80;99.90;;;;;;5012748;28;20394;-75
2022/07/10 02:30:59;;;;;;;1.63;0.45;;;13.10;99.90;;;;;;5012551;28;20046;-75
2022/07/10 02:33:25;;;;;;;1.70;1.00;;;12.80;99.90;;;;;;5012617;28;20046;-75
2022/07/10 02:35:50;;;;;;;0.30;0.30;;;12.70;99.90;;;;;;5012176;28;20042;-75
2022/07/10 02:38:16;;;;;;;0.30;0.30;;;12.70;99.90;;;;;;4995836;28;20038;-75
2022/07/10 02:40:42;;;;;;;1.63;0.50;;;12.60;99.90;;;;;;5012173;28;20414;-76
2022/07/10 02:43:08;;;;;;;2.20;0.68;;;12.60;99.90;;;;;;5012411;28;20042;-75
2022/07/10 02:45:33;;;;;;;0.75;0.40;;;12.60;99.90;;;;;;5012078;28;20053;-76
2022/07/10 02:47:59;;;;;;;1.48;0.50;;;12.60;99.90;;;;;;5012059;28;20507;-76
2022/07/10 02:50:24;;;;;;;1.33;0.57;;;12.70;99.90;;;;;;5012093;28;20529;-75
2022/07/10 02:52:50;;;;;;;1.27;0.45;;;12.50;99.90;;;;;;5012309;28;20395;-75
2022/07/10 02:55:16;;;;;;;0.57;0.40;;;12.50;99.90;;;;;;5012333;28;20045;-76
2022/07/10 02:57:41;;;;;;;2.05;0.40;;;12.40;99.90;;;;;;4995613;28;20042;-76
2022/07/10 03:00:08;;;;;;;3.25;0.68;;;12.40;99.90;;;;;;5011891;28;20409;-75
2022/07/10 03:02:33;;;;;;;2.70;0.60;;;12.30;99.90;;;;;;4995523;28;20044;-76
2022/07/10 03:04:59;;;;;;;1.10;0.35;;;12.30;99.90;;;;;;4995527;28;20038;-75
2022/07/10 03:07:25;;;;;;;0.65;0.40;;;12.30;99.90;;;;;;5012031;28;20069;-76
2022/07/10 03:09:50;;;;;;;1.52;0.40;;;12.30;99.90;;;;;;5012105;28;20092;-75
2022/07/10 03:12:16;;;;;;;2.13;0.60;;;12.20;99.90;;;;;;5014365;28;20042;-76
2022/07/10 03:14:42;;;;;;;3.20;0.38;;;12.20;99.90;;;;;;4999096;28;20091;-76
2022/07/10 03:17:07;;;;;;;0.47;0.40;;;12.20;99.90;;;;;;5015029;28;20139;-75
2022/07/10 03:19:33;;;;;;;1.52;0.80;;;12.30;99.90;;;;;;4982526;28;20042;-75
2022/07/10 03:21:59;;;;;;;3.92;0.68;;;12.20;99.90;;;;;;5014880;28;20086;-76
2022/07/10 03:24:25;;;;;;;3.85;0.25;;;12.10;99.90;;;;;;5014924;28;20128;-76
2022/07/10 03:26:51;;;;;;;1.63;0.40;;;12.30;99.90;;;;;;5014996;28;20042;-76
2022/07/10 03:29:16;;;;;;;3.63;0.40;;;12.30;99.90;;;;;;4966413;28;20037;-76
2022/07/10 03:31:42;;;;;;;0.43;0.32;;;12.30;99.90;;;;;;4998849;28;20401;-76
2022/07/10 03:34:08;;;;;;;1.88;0.40;;;12.30;99.90;;;;;;4998821;28;20053;-75
2022/07/10 03:36:34;;;;;;;0.68;0.30;;;12.40;99.90;;;;;;5014817;28;20404;-76
2022/07/10 03:38:59;;;;;;;1.05;0.40;;;12.40;99.90;;;;;;4998351;28;20041;-75
2022/07/10 03:41:25;;;;;;;1.63;0.40;;;12.40;99.90;;;;;;4998428;28;20108;-75
2022/07/10 03:43:51;;;;;;;1.05;0.80;;;12.50;99.90;;;;;;4998571;28;20064;-75
2022/07/10 03:46:16;;;;;;;1.75;0.50;;;12.50;99.90;;;;;;4998542;28;20530;-75
2022/07/10 03:48:42;;;;;;;2.83;0.50;;;12.60;99.90;;;;;;5014726;28;20081;-75
2022/07/10 03:51:08;;;;;;;1.27;0.35;;;12.60;99.90;;;;;;4982418;28;20048;-76
2022/07/10 03:53:33;;;;;;;3.15;0.40;;;12.70;99.90;;;;;;4998404;28;20049;-76
2022/07/10 03:56:00;;;;;;;1.02;0.65;;;12.70;99.90;;;;;;4998325;28;20471;-76
2022/07/10 03:58:26;;;;;;;0.63;0.40;;;12.70;99.90;;;;;;5014889;28;20041;-75
2022/07/10 04:00:52;;;;;;;2.15;0.65;;;12.70;99.90;;;;;;4981860;28;20132;-76
2022/07/10 04:03:17;;;;;;;0.98;0.35;;;12.80;99.90;;;;;;4998438;28;20120;-75
2022/07/10 04:05:43;;;;;;;0.30;0.30;;;12.80;99.90;;;;;;5014503;28;20121;-76
2022/07/10 04:08:09;;;;;;;2.90;0.50;;;12.80;99.90;;;;;;5014705;28;20575;-75
2022/07/10 04:10:36;;;;;;;1.75;0.28;;;12.80;99.90;;;;;;4998237;28;20041;-76
2022/07/10 04:13:01;;;;;;;2.15;0.52;;;12.90;99.90;;;;;;4997887;28;20132;-75
2022/07/10 04:15:28;;;;;;;5.57;0.55;;;12.90;99.90;;;;;;5014781;28;20073;-75
2022/07/10 04:17:54;;;;;;;4.03;0.50;;;12.90;99.90;;;;;;5014565;28;20529;-75
2022/07/10 04:20:20;;;;;;;0.82;0.40;;;13.70;99.90;;;;;;5016597;28;20042;-76
2022/07/10 04:22:46;;;;;;;4.60;0.55;;;12.90;99.90;;;;;;5002175;28;20392;-75
2022/07/10 04:25:12;;;;;;;0.68;0.38;;;13.40;99.90;;;;;;5017744;28;20044;-75
2022/07/10 04:27:38;;;;;;;0.80;0.40;;;13.00;99.90;;;;;;5001737;28;20069;-75
2022/07/10 04:30:05;;;;;;;1.08;0.55;;;13.00;99.90;;;;;;5017697;28;20087;-75
2022/07/10 04:32:31;;;;;;;0.80;0.43;;;13.00;99.90;;;;;;5017802;28;20033;-75
2022/07/10 04:34:57;;;;;;;1.15;0.50;;;13.10;99.90;;;;;;5001474;28;20056;-75
2022/07/10 04:37:23;;;;;;;2.08;0.90;;;13.40;99.90;;;;;;5018077;28;20045;-75
2022/07/10 04:39:48;;;;;;;0.88;0.40;;;13.10;99.90;;;;;;5017661;28;20128;-75
2022/07/10 04:42:14;;;;;;;1.35;0.47;;;13.10;99.90;;;;;;5001351;28;20048;-75
2022/07/10 04:44:40;;;;;;;1.55;0.45;;;13.20;99.90;;;;;;5017630;28;20087;-76
2022/07/10 04:47:06;;;;;;;0.63;0.30;;;13.50;99.90;;;;;;5017670;28;20041;-75
2022/07/10 04:49:32;;;;;;;1.35;0.60;;;13.20;99.90;;;;;;5018143;28;20044;-75
2022/07/10 04:51:58;;;;;;;0.85;0.50;;;13.30;99.90;;;;;;5017944;28;20045;-75
2022/07/10 04:54:24;;;;;;;0.50;0.40;;;13.30;99.90;;;;;;5001431;28;20415;-75
2022/07/10 04:56:49;;;;;;;0.30;0.30;;;13.60;99.90;;;;;;5017402;28;20052;-75
2022/07/10 04:59:15;;;;;;;4.07;0.65;;;13.40;99.90;;;;;;5017235;28;20548;-76
2022/07/10 05:01:41;;;;;;;1.60;0.47;;;13.40;99.90;;;;;;5017196;28;20034;-75
2022/07/10 05:04:06;;;;;;;0.93;0.45;;;13.50;99.90;;;;;;5001075;28;20037;-75
2022/07/10 05:06:32;;;;;;;0.80;0.50;;;14.00;99.90;;;;;;5001288;28;20053;-75
2022/07/10 05:08:59;;;;;;;1.02;0.30;;;13.60;99.90;;;;;;5001151;28;20045;-75
2022/07/10 05:11:25;;;;;;;1.73;0.55;;;13.60;99.90;;;;;;5017035;28;20045;-76
2022/07/10 05:13:51;;;;;;;1.13;0.52;;;13.60;99.90;;;;;;5013608;28;20064;-75
2022/07/10 05:16:18;;;;;;;3.55;0.60;;;13.70;99.90;;;;;;4997444;28;20045;-76
2022/07/10 05:18:44;;;;;;;3.50;0.93;;;13.80;99.90;;;;;;5013967;28;20490;-76
2022/07/10 05:21:09;;;;;;;2.22;0.57;;;13.80;99.90;;;;;;5013566;28;20037;-75
2022/07/10 05:23:36;;;;;;;0.82;0.40;;;13.90;99.90;;;;;;4997455;28;20038;-75
2022/07/10 05:26:02;;;;;;;1.50;0.60;;;13.90;99.90;;;;;;5013539;28;20046;-76
2022/07/10 05:28:28;;;;;;;0.93;0.38;;;14.00;99.90;;;;;;5013660;28;20037;-76
2022/07/10 05:30:53;;;;;;;4.97;0.63;;;14.00;99.90;;;;;;5013301;28;20049;-75
2022/07/10 05:33:19;;;;;;;1.10;0.50;;;14.20;99.90;;;;;;5013359;28;20077;-76
2022/07/10 05:35:45;;;;;;;2.33;0.60;;;14.20;99.90;;;;;;5013680;28;20050;-76
2022/07/10 05:38:10;;;;;;;3.63;0.50;;;14.40;99.90;;;;;;5013463;28;20049;-74
2022/07/10 05:40:36;;;;;;;1.13;0.52;;;14.30;99.90;;;;;;5013246;28;20132;-76
2022/07/10 05:43:02;;;;;;;3.40;0.70;;;14.40;99.90;;;;;;5013535;28;20041;-76
2022/07/10 05:45:28;;;;;;;2.03;0.50;;;14.40;99.90;;;;;;5013189;28;20124;-76
2022/07/10 05:47:54;;;;;;;0.40;0.35;;;14.50;99.90;;;;;;5013227;28;20172;-76
2022/07/10 05:50:19;;;;;;;1.88;0.60;;;14.80;99.90;;;;;;5013198;28;20413;-76
2022/07/10 05:52:45;;;;;;;0.80;0.50;;;14.60;99.90;;;;;;5013457;28;20528;-76
2022/07/10 05:55:11;;;;;;;1.67;0.57;;;14.80;99.90;;;;;;5013104;28;20580;-76
2022/07/10 05:57:37;;;;;;;4.95;0.68;;;;;;;;;;5013019;28;20042;-76
2022/07/10 06:00:05;;;;;;;2.50;0.60;;;14.90;99.90;;;;;;5012952;28;20117;-76
2022/07/10 06:02:31;;;;;;;1.30;0.60;;;15.00;99.90;;;;;;5014055;28;20049;-77
2022/07/10 06:04:56;;;;;;;3.75;0.57;;;15.00;99.90;;;;;;5012817;28;20038;-76
2022/07/10 06:07:22;;;;;;;1.35;0.60;;;15.00;99.90;;;;;;5012809;28;20037;-75
2022/07/10 06:09:48;;;;;;;1.25;0.40;;;15.10;99.90;;;;;;5013220;28;20052;-76
2022/07/10 06:12:15;;;;;;;2.60;1.00;;;15.20;99.90;;;;;;4998478;28;20045;-76
2022/07/10 06:14:41;;;;;;;0.55;0.40;;;15.60;99.90;;;;;;4999924;28;20053;-75
2022/07/10 06:17:07;;;;;;;2.67;0.57;;;15.20;99.90;;;;;;5015846;28;20052;-76
2022/07/10 06:19:33;;;;;;;1.23;0.68;;;15.30;99.90;;;;;;4999673;28;20050;-77
2022/07/10 06:24:43;;;;;;;2.03;0.80;;;15.40;99.90;;;;;;5015989;28;20611;-79
2022/07/10 06:27:08;;;;;;;2.58;0.50;;;15.40;99.90;;;;;;5015691;28;20087;-79
2022/07/10 06:29:34;;;;;;;1.42;0.70;;;15.40;99.90;;;;;;5015876;28;20417;-79
2022/07/10 06:32:00;;;;;;;1.92;0.60;;;15.40;99.90;;;;;;4999350;28;20037;-79
2022/07/10 06:34:25;;;;;;;0.55;0.40;;;15.30;99.90;;;;;;4999411;28;20037;-79
2022/07/10 06:36:51;;;;;;;6.60;0.80;;;15.30;99.90;;;;;;5015593;28;20516;-79
2022/07/10 06:39:17;;;;;;;1.10;0.60;;;15.50;99.90;;;;;;5015658;28;20556;-79
2022/07/10 06:41:42;;;;;;;1.98;0.70;;;15.20;99.90;;;;;;4998785;28;20040;-79
2022/07/10 06:44:08;;;;;;;1.33;0.70;;;15.30;99.90;;;;;;5015182;28;20393;-77
2022/07/10 06:46:34;;;;;;;1.75;0.65;;;15.30;99.90;;;;;;4999208;28;20124;-75
2022/07/10 06:49:00;;;;;;;1.40;0.65;;;15.20;99.90;;;;;;4999046;28;20041;-76
2022/07/10 06:51:26;;;;;;;3.13;0.73;;;15.00;99.90;;;;;;4999096;28;20084;-77
2022/07/10 06:53:52;;;;;;;1.75;0.70;;;14.90;99.90;;;;;;4998944;28;20077;-73
2022/07/10 06:56:18;;;;;;;3.20;0.57;;;15.00;99.90;;;;;;5015208;28;20038;-76
2022/07/10 06:58:44;;;;;;;2.55;0.55;;;15.00;99.90;;;;;;5015185;28;20049;-76
2022/07/10 07:01:10;;;;;;;1.00;0.50;;;15.00;99.90;;;;;;4998987;28;20042;-76
2022/07/10 07:03:36;;;;;;;1.35;0.60;;;15.10;99.90;;;;;;5015124;28;20037;-76
2022/07/10 07:06:01;;;;;;;4.47;0.60;;;15.10;99.90;;;;;;4982601;28;20115;-82
2022/07/10 07:08:31;;;;;;;4.18;0.45;;;15.10;99.90;;;;;;4998688;28;20146;-76
2022/07/10 07:10:57;;;;;;;2.75;0.70;;;15.00;99.90;;;;;;4998611;28;20041;-76
2022/07/10 07:13:23;;;;;;;7.10;0.70;;;15.00;99.90;;;;;;4982421;28;20065;-76
2022/07/10 07:16:11;;;;;;;0.68;0.50;;;15.00;99.90;;;;;;4982868;28;20497;-77
2022/07/10 07:18:37;;;;;;;1.80;0.70;;;15.00;99.90;;;;;;5014710;28;20056;-76
2022/07/10 07:23:47;;;;;;;2.08;0.50;;;14.90;99.90;;;;;;5014962;28;20044;-77
2022/07/10 07:26:13;;;;;;;1.27;0.70;;;14.90;99.90;;;;;;4998560;28;20405;-77
2022/07/10 07:28:38;;;;;;;1.83;0.80;;;14.90;99.90;;;;;;4982499;28;20042;-78
2022/07/10 07:31:04;;;;;;;3.38;0.73;;;15.00;99.90;;;;;;4982373;28;20492;-78
2022/07/10 07:33:30;;;;;;;1.42;0.65;;;15.00;99.90;;;;;;4998609;28;20450;-77
2022/07/10 07:35:56;;;;;;;0.60;0.50;;;15.10;99.90;;;;;;4998792;28;20049;-78
2022/07/10 07:38:22;;;;;;;2.45;0.50;;;15.20;99.90;;;;;;5015046;28;20044;-78
2022/07/10 07:40:48;;;;;;;0.50;0.40;;;15.30;99.90;;;;;;4998426;28;20076;-78
2022/07/10 07:43:13;;;;;;;0.60;0.45;;;15.50;99.90;;;;;;4982525;28;20113;-76
2022/07/10 07:45:39;;;;;;;1.25;0.50;;;15.60;99.90;;;;;;4998530;28;20037;-77
2022/07/10 07:48:05;;;;;;;0.63;0.50;;;15.80;99.90;;;;;;4998420;28;20041;-77
2022/07/10 07:50:33;;;;;;;0.55;0.40;;;15.90;99.90;;;;;;5014743;28;20053;-77
2022/07/10 07:52:59;;;;;;;2.05;0.55;;;16.10;99.90;;;;;;4982356;28;20045;-77
2022/07/10 07:55:25;;;;;;;0.55;0.47;;;16.20;99.90;;;;;;5017412;28;20512;-77
2022/07/10 07:57:56;;;;;;;3.92;0.70;;;16.20;99.90;;;;;;4985883;28;20084;-77
2022/07/10 08:00:24;;;;;;;3.70;0.50;;;16.10;99.90;;;;;;5002579;28;20037;-78
2022/07/10 08:02:51;;;;;;;0.88;0.40;;;16.00;99.90;;;;;;5018644;28;20397;-77
2022/07/10 08:05:18;;;;;;;3.80;0.50;;;16.00;99.90;;;;;;5018357;28;20048;-77
2022/07/10 08:07:45;;;;;;;0.65;0.50;;;15.80;99.90;;;;;;5002455;28;20490;-77
2022/07/10 08:10:16;;;;;;;0.50;0.50;;;15.80;99.90;;;;;;5002204;28;20544;-77
2022/07/10 08:12:43;;;;;;;1.23;0.52;;;15.70;99.90;;;;;;5018348;28;20517;-77
2022/07/10 08:15:10;;;;;;;1.85;0.63;;;15.70;99.90;;;;;;5001812;28;20056;-77
2022/07/10 08:17:36;;;;;;;2.88;0.57;;;15.70;99.90;;;;;;5001869;28;20041;-77
2022/07/10 08:20:05;;;;;;;3.30;0.60;;;15.70;99.90;;;;;;5017972;28;20045;-77
2022/07/10 08:22:32;;;;;;;1.15;0.50;;;15.70;99.90;;;;;;5002072;28;20543;-77
2022/07/10 08:24:58;;;;;;;0.43;0.40;;;15.80;99.90;;;;;;5035647;28;20044;-78
2022/07/10 08:27:24;;;;;;;2.10;0.70;;;16.00;99.90;;;;;;4985534;28;20045;-77
2022/07/10 08:29:50;;;;;;;0.55;0.40;;;16.20;99.90;;;;;;5018176;28;20476;-77
2022/07/10 08:32:16;;;;;;;0.50;0.50;;;16.20;99.90;;;;;;4985373;28;20083;-77
2022/07/10 08:34:41;;;;;;;0.95;0.50;;;16.30;99.90;;;;;;5001651;28;20045;-77
2022/07/10 08:37:07;;;;;;;4.63;0.45;;;16.30;99.90;;;;;;5001598;28;20500;-77
2022/07/10 08:39:33;;;;;;;1.00;0.45;;;16.40;99.90;;;;;;5001393;28;20041;-77
2022/07/10 08:42:00;;;;;;;0.30;0.30;;;16.40;99.90;;;;;;5017657;28;20040;-77
2022/07/10 08:44:28;;;;;;;0.80;0.47;;;16.40;99.90;;;;;;5001366;28;20037;-77
2022/07/10 08:46:54;;;;;;;0.73;0.50;;;16.40;99.90;;;;;;5017562;28;20045;-77
2022/07/10 08:49:28;;;;;;;0.57;0.47;;;16.40;99.90;;;;;;5001560;28;20072;-77
2022/07/10 08:51:57;;;;;;;1.80;0.35;;;16.50;99.90;;;;;;5017456;28;20056;-77
2022/07/10 08:54:23;;;;;;;1.35;0.52;;;16.40;99.90;;;;;;5017539;28;20046;-77
2022/07/10 08:56:50;;;;;;;0.35;0.35;;;16.30;99.90;;;;;;5001368;28;20453;-77
2022/07/10 08:59:17;;;;;;;0.82;0.35;;;16.30;99.90;;;;;;5001197;28;20077;-77
2022/07/10 09:01:43;;;;;;;0.52;0.32;;;16.40;99.90;;;;;;5000950;28;20052;-77
2022/07/10 09:04:18;;;;;;;0.32;0.32;;;16.50;99.90;;;;;;5017276;28;20037;-77
2022/07/10 09:06:44;;;;;;;0.52;0.40;;;16.60;99.90;;;;;;5001029;28;20116;-77
2022/07/10 09:09:11;;;;;;;0.30;0.22;;;16.70;99.90;;;;;;5017290;28;20095;-78
2022/07/10 09:11:40;;;;;;;1.55;0.30;;;16.80;99.90;;;;;;5017438;28;20457;-77
2022/07/10 09:14:08;;;;;;;0.20;0.20;;;16.90;99.90;;;;;;5000735;28;20053;-78
2022/07/10 09:16:36;;;;;;;0.20;0.20;;;16.90;99.90;;;;;;5017382;28;20107;-78
2022/07/10 09:19:20;;;;;;;1.08;0.32;;;16.90;99.90;;;;;;5018098;28;20485;-77
2022/07/10 09:21:48;;;;;;;2.53;0.45;;;16.90;99.90;;;;;;5000882;28;20489;-77
2022/07/10 09:24:16;;;;;;;3.65;0.63;;;16.80;99.90;;;;;;5000922;28;20106;-80
2022/07/10 09:26:47;;;;;;;1.40;0.40;;;16.70;99.90;;;;;;5000842;28;20392;-79
2022/07/10 09:29:13;;;;;;;0.80;0.63;;;16.60;99.90;;;;;;4985053;28;20041;-73
2022/07/10 09:31:53;;;;;;;0.90;0.30;;;16.60;99.90;;;;;;5000960;28;20037;-76
2022/07/10 09:34:35;;;;;;;0.52;0.30;;;16.50;99.90;;;;;;5002489;28;20044;-74
2022/07/10 09:37:23;;;;;;;0.57;0.43;;;16.40;99.90;;;;;;5016689;28;20049;-73
2022/07/10 09:39:55;;;;;;;0.88;0.52;;;16.40;99.90;;;;;;5016669;28;20057;-75
2022/07/10 09:42:30;;;;;;;0.35;0.30;;;16.50;99.90;;;;;;5016781;28;20546;-75
2022/07/10 09:45:18;;;;;;;0.45;0.40;;;16.50;99.90;;;;;;5000286;28;20037;-75
2022/07/10 09:47:56;;;;;;;0.63;0.35;;;16.60;99.90;;;;;;4984579;28;20037;-75
2022/07/10 09:50:28;;;;;;;0.70;0.30;;;16.50;99.90;;;;;;5016894;28;20057;-75
2022/07/10 09:52:57;;;;;;;0.40;0.30;;;16.40;99.90;;;;;;5018674;28;20390;-76
2022/07/10 09:55:26;;;;;;;2.30;0.35;;;16.30;99.90;;;;;;5016279;28;20090;-76
2022/07/10 09:58:10;;;;;;;0.82;0.40;;;16.20;99.90;;;;;;5000260;28;20179;-76
2022/07/10 10:00:36;;;;;;;0.93;0.40;;;16.20;99.90;;;;;;4983713;28;20394;-76
2022/07/10 10:03:07;;;;;;;2.33;0.60;;;16.30;99.90;;;;;;5016182;28;20037;-84
2022/07/10 10:05:39;;;;;;;0.52;0.40;;;16.30;99.90;;;;;;4984193;28;20034;-80
2022/07/10 10:08:27;;;;;;;0.50;0.30;;;16.30;99.90;;;;;;4999722;28;20131;-80
2022/07/10 10:10:56;;;;;;;0.38;0.38;;;16.30;99.90;;;;;;5016257;28;20370;-82
2022/07/10 10:13:23;;;;;;;2.08;0.50;;;16.30;99.90;;;;;;4983914;28;20064;-74
2022/07/10 10:15:51;;;;;;;1.10;0.55;;;16.20;99.90;;;;;;5016211;28;20045;-76
2022/07/10 10:18:19;;;;;;;0.50;0.50;;;16.10;99.90;;;;;;4998872;28;20045;-78
2022/07/10 10:20:47;;;;;;;1.58;0.68;;;16.00;99.90;;;;;;5016309;28;20415;-79
2022/07/10 10:23:20;;;;;;;0.35;0.35;;;16.10;99.90;;;;;;5016115;28;20037;-72
2022/07/10 10:25:47;;;;;;;5.32;0.43;;;16.00;99.90;;;;;;5015759;28;20037;-75
2022/07/10 10:28:15;;;;;;;0.30;0.30;;;16.10;99.90;;;;;;5015773;28;20068;-77
2022/07/10 10:30:43;;;;;;;7.70;1.55;;;16.10;99.90;;;;;;5015605;28;20053;-77
2022/07/10 10:33:44;;;;;;;0.80;0.50;;;16.20;99.90;;;;;;5015871;28;20507;-77
2022/07/10 10:36:29;;;;;;;0.47;0.38;;;16.30;99.90;;;;;;4999595;28;20504;-76
2022/07/10 10:38:55;;;;;;;0.57;0.50;;;16.30;99.90;;;;;;4998713;28;20102;-74
2022/07/10 10:41:29;;;;;;;0.98;0.50;;;16.40;99.90;;;;;;5015267;28;20080;-75
2022/07/10 10:44:06;;;;;;;7.25;1.17;;;16.50;99.90;;;;;;5015463;28;20053;-76
2022/07/10 10:46:32;;;;;;;3.92;1.25;;;16.40;99.90;;;;;;5015519;28;20076;-75
2022/07/10 10:49:08;;;;;;;0.55;0.40;;;16.50;99.90;;;;;;5015540;28;20343;-76
2022/07/10 10:52:00;;;;;;;1.10;0.68;;;16.60;99.90;;;;;;5015665;28;20069;-74
2022/07/10 10:54:26;;;;;;;0.70;0.60;;;16.60;99.90;;;;;;5015625;28;20450;-76
2022/07/10 10:57:15;;;;;;;0.63;0.50;;;16.80;99.90;;;;;;4999256;28;20168;-75
2022/07/10 11:00:00;;;;;;;0.70;0.50;;;16.90;99.90;;;;;;4999145;28;20034;-77
2022/07/10 11:02:26;;;;;;;1.00;0.40;;;17.00;99.90;;;;;;4982902;28;20041;-77
2022/07/10 11:05:18;;;;;;;0.75;0.47;;;17.10;99.90;;;;;;4998880;28;20045;-76
2022/07/10 11:07:59;;;;;;;0.80;0.50;;;17.00;99.90;;;;;;5002655;28;20081;-76
2022/07/10 11:10:35;;;;;;;1.50;0.60;;;16.90;99.90;;;;;;5015108;28;20136;-76
2022/07/10 11:13:12;;;;;;;0.50;0.50;;;16.70;99.90;;;;;;5014950;28;20053;-76
2022/07/10 11:15:46;;;;;;;1.05;0.60;;;16.70;99.90;;;;;;4998686;28;20500;-76
2022/07/10 11:18:15;;;;;;;1.25;0.73;;;16.80;99.90;;;;;;4998980;28;20146;-76
2022/07/10 11:20:46;;;;;;;0.60;0.50;;;16.80;99.90;;;;;;4998711;28;20462;-76
2022/07/10 11:23:11;;;;;;;4.78;0.63;;;16.80;99.90;;;;;;4998935;28;20046;-80
2022/07/10 11:25:49;;;;;;;0.75;0.60;;;16.90;99.90;;;;;;5014895;28;20124;-72
2022/07/10 11:28:24;;;;;;;3.28;0.77;;;16.90;99.90;;;;;;5015529;28;20072;-74
2022/07/10 11:30:54;;;;;;;0.70;0.57;;;16.80;99.90;;;;;;5019197;28;20042;-75
2022/07/10 11:33:21;;;;;;;3.67;0.77;;;16.80;99.90;;;;;;4986631;28;20045;-74
2022/07/10 11:35:50;;;;;;;0.90;0.73;;;16.70;99.90;;;;;;5019198;28;20095;-73
2022/07/10 11:38:23;;;;;;;2.42;1.02;;;16.70;99.90;;;;;;5018948;28;20041;-76
2022/07/10 11:40:49;;;;;;;1.50;0.90;;;16.60;99.90;;;;;;5018848;28;20029;-82
2022/07/10 11:43:17;;;;;;;0.93;0.55;;;16.60;99.90;;;;;;5018801;28;20071;-74
2022/07/10 11:45:44;;;;;;;1.50;0.93;;;16.70;99.90;;;;;;4986702;28;20464;-74
2022/07/10 11:48:21;;;;;;;1.27;0.80;;;16.90;99.90;;;;;;5018912;28;20038;-75
2022/07/10 11:50:47;;;;;;;0.98;0.57;;;17.20;99.90;;;;;;5018719;28;20053;-76
2022/07/10 11:53:13;;;;;;;2.40;1.00;;;17.40;99.90;;;;;;5018531;28;20451;-78
2022/07/10 11:55:40;;;;;;;0.90;0.55;;;17.50;99.90;;;;;;5002204;28;20128;-76
2022/07/10 11:58:19;;;;;;;1.15;0.70;;;17.50;99.90;;;;;;5018435;28;20409;-77
2022/07/10 12:01:06;;;;;;;1.02;0.68;;;17.50;99.90;;;;;;5002215;28;20038;-77
2022/07/10 12:03:32;;;;;;;1.55;0.68;;;17.50;99.90;;;;;;5018450;28;20053;-76
2022/07/10 12:06:02;;;;;;;2.22;0.95;;;17.40;99.90;;;;;;5018350;28;20037;-75
2022/07/10 12:08:28;;;;;;;0.70;0.60;;;17.30;99.90;;;;;;5002332;28;20049;-71
2022/07/10 12:10:54;;;;;;;1.08;0.63;;;17.10;99.90;;;;;;5018339;28;20041;-75
2022/07/10 12:13:20;;;;;;;1.13;0.68;;;17.10;99.90;;;;;;4985589;28;20123;-77
2022/07/10 12:15:46;;;;;;;1.88;1.10;;;17.10;99.90;;;;;;5018567;28;20037;-72
2022/07/10 12:18:17;;;;;;;0.60;0.60;;;17.20;99.90;;;;;;5001971;28;20056;-73
2022/07/10 12:20:47;;;;;;;0.88;0.60;;;17.20;99.90;;;;;;5018209;28;20040;-74
2022/07/10 12:23:17;;;;;;;0.55;0.52;;;17.40;99.90;;;;;;5002366;28;20071;-74
2022/07/10 12:25:45;;;;;;;1.80;0.75;;;17.40;99.90;;;;;;5018301;28;20049;-74
2022/07/10 12:28:12;;;;;;;0.75;0.52;;;17.40;99.90;;;;;;5001924;28;20037;-78
2022/07/10 12:30:42;;;;;;;1.05;0.50;;;17.20;99.90;;;;;;5002065;28;20578;-74
2022/07/10 12:33:18;;;;;;;0.65;0.57;;;17.00;99.90;;;;;;5017819;28;20084;-74
2022/07/10 12:35:51;;;;;;;0.95;0.55;;;17.00;99.90;;;;;;5017826;28;20049;-75
2022/07/10 12:38:23;;;;;;;0.45;0.45;;;16.90;99.90;;;;;;5017827;28;20092;-74
2022/07/10 12:40:49;;;;;;;1.33;0.63;;;16.90;99.90;;;;;;5000605;28;20053;-74
2022/07/10 12:43:26;;;;;;;1.95;0.70;;;16.90;99.90;;;;;;5001504;28;20056;-74
2022/07/10 12:46:19;;;;;;;1.52;0.82;;;16.90;99.90;;;;;;4985102;28;20126;-74
2022/07/10 12:49:09;;;;;;;1.05;0.55;;;16.90;99.90;;;;;;5017826;28;20534;-74
2022/07/10 12:51:50;;;;;;;0.80;0.55;;;16.90;99.90;;;;;;5017555;28;20042;-74
2022/07/10 12:54:36;;;;;;;0.68;0.57;;;16.80;99.90;;;;;;5001131;28;20041;-74
2022/07/10 12:57:04;;;;;;;0.85;0.70;;;16.80;99.90;;;;;;5017626;28;20497;-74
2022/07/10 12:59:36;;;;;;;2.85;0.90;;;16.80;99.90;;;;;;5017567;28;20512;-74
2022/07/10 13:02:19;;;;;;;1.42;0.70;;;16.80;99.90;;;;;;5017657;28;20045;-74